sensor_id;sensor_type;location;lat;lon;timestamp;temperature;humidity
15113;DHT22;7657;50.140;7.076;2023-03-08T00:01:32;4.40;99.90
15113;DHT22;7657;50.140;7.076;2023-03-08T00:03:59;4.40;99.90
15113;DHT22;7657;50.140;7.076;2023-03-08T00:06:26;4.40;99.90
15113;DHT22;7657;50.140;7.076;2023-03-08T00:08:54;4.40;99.90
15113;DHT22;7657;50.140;7.076;2023-03-08T00:11:21;4.50;99.90
15113;DHT22;7657;50.140;7.076;2023-03-08T00:13:48;4.50;99.90
15113;DHT22;7657;50.140;7.076;2023-03-08T00:16:16;4.50;99.90
15113;DHT22;7657;50.140;7.076;2023-03-08T00:18:43;4.50;99.90
15113;DHT22;7657;50.140;7.076;2023-03-08T00:21:12;4.50;99.90
15113;DHT22;7657;50.140;7.076;2023-03-08T00:23:40;4.50;99.90
15113;DHT22;7657;50.140;7.076;2023-03-08T00:26:07;4.50;99.90
15113;DHT22;7657;50.140;7.076;2023-03-08T00:28:34;4.50;99.90
15113;DHT22;7657;50.140;7.076;2023-03-08T00:31:03;4.40;99.90
15113;DHT22;7657;50.140;7.076;2023-03-08T00:33:33;4.40;99.90
15113;DHT22;7657;50.140;7.076;2023-03-08T00:36:02;4.40;99.90
15113;DHT22;7657;50.140;7.076;2023-03-08T00:38:30;4.50;99.90
15113;DHT22;7657;50.140;7.076;2023-03-08T00:40:57;4.50;99.90
15113;DHT22;7657;50.140;7.076;2023-03-08T00:43:24;4.50;99.90
15113;DHT22;7657;50.140;7.076;2023-03-08T00:45:51;4.50;99.90
15113;DHT22;7657;50.140;7.076;2023-03-08T00:48:19;4.50;99.90
15113;DHT22;7657;50.140;7.076;2023-03-08T00:50:47;4.50;99.90
15113;DHT22;7657;50.140;7.076;2023-03-08T00:53:15;4.60;99.90
15113;DHT22;7657;50.140;7.076;2023-03-08T00:55:47;4.60;99.90
15113;DHT22;7657;50.140;7.076;2023-03-08T00:58:14;4.60;99.90
15113;DHT22;7657;50.140;7.076;2023-03-08T01:00:41;4.60;99.90
15113;DHT22;7657;50.140;7.076;2023-03-08T01:03:08;4.60;99.90
15113;DHT22;7657;50.140;7.076;2023-03-08T01:05:38;4.70;99.90
15113;DHT22;7657;50.140;7.076;2023-03-08T01:08:06;4.70;99.90
15113;DHT22;7657;50.140;7.076;2023-03-08T01:10:34;4.70;99.90
15113;DHT22;7657;50.140;7.076;2023-03-08T01:13:01;4.70;99.90
15113;DHT22;7657;50.140;7.076;2023-03-08T01:15:28;4.80;99.90
15113;DHT22;7657;50.140;7.076;2023-03-08T01:17:54;4.70;99.90
15113;DHT22;7657;50.140;7.076;2023-03-08T01:20:21;4.80;99.90
15113;DHT22;7657;50.140;7.076;2023-03-08T01:22:48;4.80;99.90
15113;DHT22;7657;50.140;7.076;2023-03-08T01:25:16;4.80;99.90
15113;DHT22;7657;50.140;7.076;2023-03-08T01:27:43;4.80;99.90
15113;DHT22;7657;50.140;7.076;2023-03-08T01:30:11;4.80;99.90
15113;DHT22;7657;50.140;7.076;2023-03-08T01:32:38;4.80;99.90
15113;DHT22;7657;50.140;7.076;2023-03-08T01:35:05;4.80;99.90
15113;DHT22;7657;50.140;7.076;2023-03-08T01:37:33;4.80;99.90
15113;DHT22;7657;50.140;7.076;2023-03-08T01:40:00;4.80;99.90
15113;DHT22;7657;50.140;7.076;2023-03-08T01:42:28;4.80;99.90
15113;DHT22;7657;50.140;7.076;2023-03-08T01:44:56;4.90;99.90
15113;DHT22;7657;50.140;7.076;2023-03-08T01:47:25;4.80;99.90
15113;DHT22;7657;50.140;7.076;2023-03-08T01:49:54;4.90;99.90
15113;DHT22;7657;50.140;7.076;2023-03-08T01:52:25;4.90;99.90
15113;DHT22;7657;50.140;7.076;2023-03-08T01:54:56;4.80;99.90
15113;DHT22;7657;50.140;7.076;2023-03-08T01:57:27;4.80;99.90
15113;DHT22;7657;50.140;7.076;2023-03-08T01:59:58;4.80;99.90
15113;DHT22;7657;50.140;7.076;2023-03-08T02:02:31;4.80;99.90
15113;DHT22;7657;50.140;7.076;2023-03-08T02:05:01;4.80;99.90
15113;DHT22;7657;50.140;7.076;2023-03-08T02:07:28;4.80;99.90
15113;DHT22;7657;50.140;7.076;2023-03-08T02:09:55;4.80;99.90
15113;DHT22;7657;50.140;7.076;2023-03-08T02:12:22;4.80;99.90
15113;DHT22;7657;50.140;7.076;2023-03-08T02:14:49;4.80;99.90
15113;DHT22;7657;50.140;7.076;2023-03-08T02:17:18;4.80;99.90
15113;DHT22;7657;50.140;7.076;2023-03-08T02:19:50;4.80;99.90
15113;DHT22;7657;50.140;7.076;2023-03-08T02:22:19;4.80;99.90
15113;DHT22;7657;50.140;7.076;2023-03-08T02:24:47;4.90;99.90
15113;DHT22;7657;50.140;7.076;2023-03-08T02:27:18;4.80;99.90
15113;DHT22;7657;50.140;7.076;2023-03-08T02:29:47;4.80;99.90
15113;DHT22;7657;50.140;7.076;2023-03-08T02:32:14;4.80;99.90
15113;DHT22;7657;50.140;7.076;2023-03-08T02:34:41;4.90;99.90
15113;DHT22;7657;50.140;7.076;2023-03-08T02:37:08;4.80;99.90
15113;DHT22;7657;50.140;7.076;2023-03-08T02:39:35;4.80;99.90
15113;DHT22;7657;50.140;7.076;2023-03-08T02:42:03;4.80;99.90
15113;DHT22;7657;50.140;7.076;2023-03-08T02:44:30;4.80;99.90
15113;DHT22;7657;50.140;7.076;2023-03-08T02:46:57;4.80;99.90
15113;DHT22;7657;50.140;7.076;2023-03-08T02:49:24;4.80;99.90
15113;DHT22;7657;50.140;7.076;2023-03-08T02:51:51;4.80;99.90
15113;DHT22;7657;50.140;7.076;2023-03-08T02:54:18;4.80;99.90
15113;DHT22;7657;50.140;7.076;2023-03-08T02:56:44;4.80;99.90
15113;DHT22;7657;50.140;7.076;2023-03-08T02:59:13;4.80;99.90
15113;DHT22;7657;50.140;7.076;2023-03-08T03:01:39;4.80;99.90
15113;DHT22;7657;50.140;7.076;2023-03-08T03:04:06;4.70;99.90
15113;DHT22;7657;50.140;7.076;2023-03-08T03:06:33;4.70;99.90
15113;DHT22;7657;50.140;7.076;2023-03-08T03:09:04;4.60;99.90
15113;DHT22;7657;50.140;7.076;2023-03-08T03:11:31;4.50;99.90
15113;DHT22;7657;50.140;7.076;2023-03-08T03:13:58;4.60;99.90
15113;DHT22;7657;50.140;7.076;2023-03-08T03:16:27;4.50;99.90
15113;DHT22;7657;50.140;7.076;2023-03-08T03:18:55;4.40;99.90
15113;DHT22;7657;50.140;7.076;2023-03-08T03:21:23;4.40;99.90
15113;DHT22;7657;50.140;7.076;2023-03-08T03:23:50;4.50;99.90
15113;DHT22;7657;50.140;7.076;2023-03-08T03:26:18;4.40;99.90
15113;DHT22;7657;50.140;7.076;2023-03-08T03:28:46;4.30;99.90
15113;DHT22;7657;50.140;7.076;2023-03-08T03:31:15;4.40;99.90
15113;DHT22;7657;50.140;7.076;2023-03-08T03:33:44;4.30;99.90
15113;DHT22;7657;50.140;7.076;2023-03-08T03:36:13;4.30;99.90
15113;DHT22;7657;50.140;7.076;2023-03-08T03:38:40;4.30;99.90
15113;DHT22;7657;50.140;7.076;2023-03-08T03:41:09;4.30;99.90
15113;DHT22;7657;50.140;7.076;2023-03-08T03:43:36;4.30;99.90
15113;DHT22;7657;50.140;7.076;2023-03-08T03:46:04;4.20;99.90
15113;DHT22;7657;50.140;7.076;2023-03-08T03:48:34;4.20;99.90
15113;DHT22;7657;50.140;7.076;2023-03-08T03:51:03;4.10;99.90
15113;DHT22;7657;50.140;7.076;2023-03-08T03:53:32;4.10;99.90
15113;DHT22;7657;50.140;7.076;2023-03-08T03:56:03;4.10;99.90
15113;DHT22;7657;50.140;7.076;2023-03-08T03:58:30;4.10;99.90
15113;DHT22;7657;50.140;7.076;2023-03-08T04:00:57;4.00;99.90
15113;DHT22;7657;50.140;7.076;2023-03-08T04:03:24;4.00;99.90
15113;DHT22;7657;50.140;7.076;2023-03-08T04:05:51;4.00;99.90
15113;DHT22;7657;50.140;7.076;2023-03-08T04:08:20;4.00;99.90
15113;DHT22;7657;50.140;7.076;2023-03-08T04:10:46;3.90;99.90
15113;DHT22;7657;50.140;7.076;2023-03-08T04:13:14;3.90;99.90
15113;DHT22;7657;50.140;7.076;2023-03-08T04:15:41;3.90;99.90
15113;DHT22;7657;50.140;7.076;2023-03-08T04:18:08;3.90;99.90
15113;DHT22;7657;50.140;7.076;2023-03-08T04:20:34;3.90;99.90
15113;DHT22;7657;50.140;7.076;2023-03-08T04:23:01;3.90;99.90
15113;DHT22;7657;50.140;7.076;2023-03-08T04:25:29;3.90;99.90
15113;DHT22;7657;50.140;7.076;2023-03-08T04:27:56;4.00;99.90
15113;DHT22;7657;50.140;7.076;2023-03-08T04:30:23;4.00;99.90
15113;DHT22;7657;50.140;7.076;2023-03-08T04:32:50;4.00;99.90
15113;DHT22;7657;50.140;7.076;2023-03-08T04:35:17;4.00;99.90
15113;DHT22;7657;50.140;7.076;2023-03-08T04:37:45;3.90;99.90
15113;DHT22;7657;50.140;7.076;2023-03-08T04:40:12;3.90;99.90
15113;DHT22;7657;50.140;7.076;2023-03-08T04:42:40;3.80;99.90
15113;DHT22;7657;50.140;7.076;2023-03-08T04:45:08;3.80;99.90
15113;DHT22;7657;50.140;7.076;2023-03-08T04:47:35;3.80;99.90
15113;DHT22;7657;50.140;7.076;2023-03-08T04:50:02;3.70;99.90
15113;DHT22;7657;50.140;7.076;2023-03-08T04:52:29;3.70;99.90
15113;DHT22;7657;50.140;7.076;2023-03-08T04:54:56;3.70;99.90
15113;DHT22;7657;50.140;7.076;2023-03-08T04:57:23;3.70;99.90
15113;DHT22;7657;50.140;7.076;2023-03-08T04:59:52;3.70;99.90
15113;DHT22;7657;50.140;7.076;2023-03-08T05:02:20;3.60;99.90
15113;DHT22;7657;50.140;7.076;2023-03-08T05:04:47;3.60;99.90
15113;DHT22;7657;50.140;7.076;2023-03-08T05:07:13;3.60;99.90
15113;DHT22;7657;50.140;7.076;2023-03-08T05:09:40;3.60;99.90
15113;DHT22;7657;50.140;7.076;2023-03-08T05:12:08;3.60;99.90
15113;DHT22;7657;50.140;7.076;2023-03-08T05:14:34;3.60;99.90
15113;DHT22;7657;50.140;7.076;2023-03-08T05:17:03;3.50;99.90
15113;DHT22;7657;50.140;7.076;2023-03-08T05:19:30;3.50;99.90
15113;DHT22;7657;50.140;7.076;2023-03-08T05:21:57;3.50;99.90
15113;DHT22;7657;50.140;7.076;2023-03-08T05:24:23;3.50;99.90
15113;DHT22;7657;50.140;7.076;2023-03-08T05:26:51;3.50;99.90
15113;DHT22;7657;50.140;7.076;2023-03-08T05:29:18;3.50;99.90
15113;DHT22;7657;50.140;7.076;2023-03-08T05:31:45;3.50;99.90
15113;DHT22;7657;50.140;7.076;2023-03-08T05:34:13;3.50;99.90
15113;DHT22;7657;50.140;7.076;2023-03-08T05:36:40;3.50;99.90
15113;DHT22;7657;50.140;7.076;2023-03-08T05:39:08;3.60;99.90
15113;DHT22;7657;50.140;7.076;2023-03-08T05:41:35;3.50;99.90
15113;DHT22;7657;50.140;7.076;2023-03-08T05:44:02;3.50;99.90
15113;DHT22;7657;50.140;7.076;2023-03-08T05:46:29;3.50;99.90
15113;DHT22;7657;50.140;7.076;2023-03-08T05:48:56;3.40;99.90
15113;DHT22;7657;50.140;7.076;2023-03-08T05:51:24;3.40;99.90
15113;DHT22;7657;50.140;7.076;2023-03-08T05:53:51;3.40;99.90
15113;DHT22;7657;50.140;7.076;2023-03-08T05:56:19;3.40;99.90
15113;DHT22;7657;50.140;7.076;2023-03-08T05:58:47;3.40;99.90
15113;DHT22;7657;50.140;7.076;2023-03-08T06:01:16;3.40;99.90
15113;DHT22;7657;50.140;7.076;2023-03-08T06:03:43;3.50;99.90
15113;DHT22;7657;50.140;7.076;2023-03-08T06:06:11;3.50;99.90
15113;DHT22;7657;50.140;7.076;2023-03-08T06:08:40;3.60;99.90
15113;DHT22;7657;50.140;7.076;2023-03-08T06:11:07;3.70;99.90
15113;DHT22;7657;50.140;7.076;2023-03-08T06:13:34;3.70;99.90
15113;DHT22;7657;50.140;7.076;2023-03-08T06:16:02;3.60;99.90
15113;DHT22;7657;50.140;7.076;2023-03-08T06:18:29;3.70;99.90
15113;DHT22;7657;50.140;7.076;2023-03-08T06:20:57;3.60;99.90
15113;DHT22;7657;50.140;7.076;2023-03-08T06:23:25;3.60;99.90
15113;DHT22;7657;50.140;7.076;2023-03-08T06:25:53;3.60;99.90
15113;DHT22;7657;50.140;7.076;2023-03-08T06:28:21;3.50;99.90
15113;DHT22;7657;50.140;7.076;2023-03-08T06:30:48;3.50;99.90
15113;DHT22;7657;50.140;7.076;2023-03-08T06:33:15;3.50;99.90
15113;DHT22;7657;50.140;7.076;2023-03-08T06:35:43;3.50;99.90
15113;DHT22;7657;50.140;7.076;2023-03-08T06:38:09;3.40;99.90
15113;DHT22;7657;50.140;7.076;2023-03-08T06:40:36;3.40;99.90
15113;DHT22;7657;50.140;7.076;2023-03-08T06:43:05;3.30;99.90
15113;DHT22;7657;50.140;7.076;2023-03-08T06:45:31;3.30;99.90
15113;DHT22;7657;50.140;7.076;2023-03-08T06:47:59;3.30;99.90
15113;DHT22;7657;50.140;7.076;2023-03-08T06:50:26;3.30;99.90
15113;DHT22;7657;50.140;7.076;2023-03-08T06:52:53;3.40;99.90
15113;DHT22;7657;50.140;7.076;2023-03-08T06:55:20;3.30;99.90
15113;DHT22;7657;50.140;7.076;2023-03-08T06:57:47;3.30;99.90
15113;DHT22;7657;50.140;7.076;2023-03-08T07:00:16;3.40;99.90
15113;DHT22;7657;50.140;7.076;2023-03-08T07:02:44;3.30;99.90
15113;DHT22;7657;50.140;7.076;2023-03-08T07:05:13;3.30;99.90
15113;DHT22;7657;50.140;7.076;2023-03-08T07:07:41;3.30;99.90
15113;DHT22;7657;50.140;7.076;2023-03-08T07:10:09;3.30;99.90
15113;DHT22;7657;50.140;7.076;2023-03-08T07:12:36;3.30;99.90
15113;DHT22;7657;50.140;7.076;2023-03-08T07:15:05;3.30;99.90
15113;DHT22;7657;50.140;7.076;2023-03-08T07:17:34;3.30;99.90
15113;DHT22;7657;50.140;7.076;2023-03-08T07:20:01;3.20;99.90
15113;DHT22;7657;50.140;7.076;2023-03-08T07:22:29;3.20;99.90
15113;DHT22;7657;50.140;7.076;2023-03-08T07:24:56;3.20;99.90
15113;DHT22;7657;50.140;7.076;2023-03-08T07:27:23;3.20;99.90
15113;DHT22;7657;50.140;7.076;2023-03-08T07:29:50;3.20;99.90
15113;DHT22;7657;50.140;7.076;2023-03-08T07:32:16;3.10;99.90
15113;DHT22;7657;50.140;7.076;2023-03-08T07:34:45;3.10;99.90
15113;DHT22;7657;50.140;7.076;2023-03-08T07:37:12;3.10;99.90
15113;DHT22;7657;50.140;7.076;2023-03-08T07:39:39;3.10;99.90
15113;DHT22;7657;50.140;7.076;2023-03-08T07:42:06;3.20;99.90
15113;DHT22;7657;50.140;7.076;2023-03-08T07:44:33;3.20;99.90
15113;DHT22;7657;50.140;7.076;2023-03-08T07:47:01;3.20;99.90
15113;DHT22;7657;50.140;7.076;2023-03-08T07:49:28;3.30;99.90
15113;DHT22;7657;50.140;7.076;2023-03-08T07:51:57;3.30;99.90
15113;DHT22;7657;50.140;7.076;2023-03-08T07:54:24;3.30;99.90
15113;DHT22;7657;50.140;7.076;2023-03-08T07:56:51;3.20;99.90
15113;DHT22;7657;50.140;7.076;2023-03-08T07:59:18;3.30;99.90
15113;DHT22;7657;50.140;7.076;2023-03-08T08:01:45;3.30;99.90
15113;DHT22;7657;50.140;7.076;2023-03-08T08:04:12;3.30;99.90
15113;DHT22;7657;50.140;7.076;2023-03-08T08:06:39;3.30;99.90
15113;DHT22;7657;50.140;7.076;2023-03-08T08:09:09;3.40;99.90
15113;DHT22;7657;50.140;7.076;2023-03-08T08:11:38;3.50;99.90
15113;DHT22;7657;50.140;7.076;2023-03-08T08:14:06;3.50;99.90
15113;DHT22;7657;50.140;7.076;2023-03-08T08:16:33;3.70;99.90
15113;DHT22;7657;50.140;7.076;2023-03-08T08:19:00;3.60;99.90
15113;DHT22;7657;50.140;7.076;2023-03-08T08:21:27;3.60;99.90
15113;DHT22;7657;50.140;7.076;2023-03-08T08:23:54;3.60;99.90
15113;DHT22;7657;50.140;7.076;2023-03-08T08:26:23;3.70;99.90
15113;DHT22;7657;50.140;7.076;2023-03-08T08:28:51;3.80;99.90
15113;DHT22;7657;50.140;7.076;2023-03-08T08:31:20;3.90;99.90
15113;DHT22;7657;50.140;7.076;2023-03-08T08:33:47;3.90;99.90
15113;DHT22;7657;50.140;7.076;2023-03-08T08:36:16;3.80;99.90
15113;DHT22;7657;50.140;7.076;2023-03-08T08:38:44;3.90;99.90
15113;DHT22;7657;50.140;7.076;2023-03-08T08:41:13;4.00;99.90
15113;DHT22;7657;50.140;7.076;2023-03-08T08:43:43;4.00;99.90
15113;DHT22;7657;50.140;7.076;2023-03-08T08:46:10;4.10;99.90
15113;DHT22;7657;50.140;7.076;2023-03-08T08:48:38;4.10;99.90
15113;DHT22;7657;50.140;7.076;2023-03-08T08:51:06;4.10;99.90
15113;DHT22;7657;50.140;7.076;2023-03-08T08:53:34;4.20;99.90
15113;DHT22;7657;50.140;7.076;2023-03-08T08:56:10;4.20;99.90
15113;DHT22;7657;50.140;7.076;2023-03-08T08:58:37;4.20;99.90
15113;DHT22;7657;50.140;7.076;2023-03-08T09:01:12;4.20;99.90
15113;DHT22;7657;50.140;7.076;2023-03-08T09:03:39;4.30;99.90
15113;DHT22;7657;50.140;7.076;2023-03-08T09:06:06;4.30;99.90
15113;DHT22;7657;50.140;7.076;2023-03-08T09:08:33;4.30;99.90
15113;DHT22;7657;50.140;7.076;2023-03-08T09:11:04;4.30;99.90
15113;DHT22;7657;50.140;7.076;2023-03-08T09:13:31;4.30;99.90
15113;DHT22;7657;50.140;7.076;2023-03-08T09:15:58;4.40;99.90
15113;DHT22;7657;50.140;7.076;2023-03-08T09:18:27;4.40;99.90
15113;DHT22;7657;50.140;7.076;2023-03-08T09:20:54;4.30;99.90
15113;DHT22;7657;50.140;7.076;2023-03-08T09:23:20;4.40;99.90
15113;DHT22;7657;50.140;7.076;2023-03-08T09:25:54;4.30;99.90
15113;DHT22;7657;50.140;7.076;2023-03-08T09:28:22;4.30;99.90
15113;DHT22;7657;50.140;7.076;2023-03-08T09:30:49;4.40;99.90
15113;DHT22;7657;50.140;7.076;2023-03-08T09:33:16;4.50;99.90
15113;DHT22;7657;50.140;7.076;2023-03-08T09:35:54;4.50;99.90
15113;DHT22;7657;50.140;7.076;2023-03-08T09:38:21;4.60;99.90
15113;DHT22;7657;50.140;7.076;2023-03-08T09:40:55;4.60;99.90
15113;DHT22;7657;50.140;7.076;2023-03-08T09:43:32;4.60;99.90
15113;DHT22;7657;50.140;7.076;2023-03-08T09:46:08;4.70;99.90
15113;DHT22;7657;50.140;7.076;2023-03-08T09:48:38;4.70;99.90
15113;DHT22;7657;50.140;7.076;2023-03-08T09:51:10;4.70;99.90
15113;DHT22;7657;50.140;7.076;2023-03-08T09:53:42;4.80;99.90
15113;DHT22;7657;50.140;7.076;2023-03-08T09:56:17;4.80;99.90
15113;DHT22;7657;50.140;7.076;2023-03-08T09:58:48;4.90;99.90
15113;DHT22;7657;50.140;7.076;2023-03-08T10:01:27;4.90;99.90
15113;DHT22;7657;50.140;7.076;2023-03-08T10:07:09;5.10;99.90
15113;DHT22;7657;50.140;7.076;2023-03-08T10:09:44;5.10;99.90
15113;DHT22;7657;50.140;7.076;2023-03-08T10:12:19;5.20;99.90
15113;DHT22;7657;50.140;7.076;2023-03-08T10:14:50;5.30;99.90
15113;DHT22;7657;50.140;7.076;2023-03-08T10:17:20;5.30;99.90
15113;DHT22;7657;50.140;7.076;2023-03-08T10:19:53;5.40;99.90
15113;DHT22;7657;50.140;7.076;2023-03-08T10:22:25;5.50;99.90
15113;DHT22;7657;50.140;7.076;2023-03-08T10:24:56;5.50;99.90
15113;DHT22;7657;50.140;7.076;2023-03-08T10:27:25;5.60;99.90
15113;DHT22;7657;50.140;7.076;2023-03-08T10:29:54;5.60;99.90
15113;DHT22;7657;50.140;7.076;2023-03-08T10:32:22;5.60;99.90
15113;DHT22;7657;50.140;7.076;2023-03-08T10:34:49;5.60;99.90
15113;DHT22;7657;50.140;7.076;2023-03-08T10:37:19;5.60;99.90
15113;DHT22;7657;50.140;7.076;2023-03-08T10:39:49;5.60;99.90
15113;DHT22;7657;50.140;7.076;2023-03-08T10:42:20;5.70;99.90
15113;DHT22;7657;50.140;7.076;2023-03-08T10:44:57;5.70;99.90
15113;DHT22;7657;50.140;7.076;2023-03-08T10:47:26;5.80;99.90
15113;DHT22;7657;50.140;7.076;2023-03-08T10:50:05;5.90;99.90
15113;DHT22;7657;50.140;7.076;2023-03-08T10:52:36;6.00;99.90
15113;DHT22;7657;50.140;7.076;2023-03-08T10:55:09;6.00;99.90
15113;DHT22;7657;50.140;7.076;2023-03-08T10:57:38;6.00;99.90
15113;DHT22;7657;50.140;7.076;2023-03-08T11:00:20;6.10;99.90
15113;DHT22;7657;50.140;7.076;2023-03-08T11:02:49;6.10;99.90
15113;DHT22;7657;50.140;7.076;2023-03-08T11:05:29;6.20;99.90
15113;DHT22;7657;50.140;7.076;2023-03-08T11:07:58;6.20;99.90
15113;DHT22;7657;50.140;7.076;2023-03-08T11:10:27;6.30;99.90
15113;DHT22;7657;50.140;7.076;2023-03-08T11:13:01;6.40;99.90
15113;DHT22;7657;50.140;7.076;2023-03-08T11:15:30;6.40;99.90
15113;DHT22;7657;50.140;7.076;2023-03-08T11:18:02;6.50;99.90
15113;DHT22;7657;50.140;7.076;2023-03-08T11:20:37;6.50;99.90
15113;DHT22;7657;50.140;7.076;2023-03-08T11:23:15;6.50;99.90
15113;DHT22;7657;50.140;7.076;2023-03-08T11:25:54;6.50;99.90
15113;DHT22;7657;50.140;7.076;2023-03-08T11:28:35;6.40;99.90
15113;DHT22;7657;50.140;7.076;2023-03-08T11:31:13;6.50;99.90
15113;DHT22;7657;50.140;7.076;2023-03-08T11:36:38;6.40;99.90
15113;DHT22;7657;50.140;7.076;2023-03-08T11:39:13;6.40;99.90
15113;DHT22;7657;50.140;7.076;2023-03-08T11:41:51;6.40;99.90
15113;DHT22;7657;50.140;7.076;2023-03-08T11:44:51;6.30;99.90
15113;DHT22;7657;50.140;7.076;2023-03-08T11:47:34;6.20;99.90
15113;DHT22;7657;50.140;7.076;2023-03-08T11:50:09;6.20;99.90
15113;DHT22;7657;50.140;7.076;2023-03-08T11:52:46;6.20;99.90
15113;DHT22;7657;50.140;7.076;2023-03-08T11:55:36;6.20;99.90
15113;DHT22;7657;50.140;7.076;2023-03-08T11:58:10;6.20;99.90
15113;DHT22;7657;50.140;7.076;2023-03-08T12:00:41;6.20;99.90
15113;DHT22;7657;50.140;7.076;2023-03-08T12:03:13;6.10;99.90
15113;DHT22;7657;50.140;7.076;2023-03-08T12:05:43;6.10;99.90
15113;DHT22;7657;50.140;7.076;2023-03-08T12:08:15;6.20;99.90
15113;DHT22;7657;50.140;7.076;2023-03-08T12:10:47;6.20;99.90
15113;DHT22;7657;50.140;7.076;2023-03-08T12:13:20;6.20;99.90
15113;DHT22;7657;50.140;7.076;2023-03-08T12:15:54;6.30;99.90
15113;DHT22;7657;50.140;7.076;2023-03-08T12:18:26;6.10;99.90
15113;DHT22;7657;50.140;7.076;2023-03-08T12:21:01;6.20;99.90
15113;DHT22;7657;50.140;7.076;2023-03-08T12:23:34;6.20;99.90
15113;DHT22;7657;50.140;7.076;2023-03-08T12:26:08;6.30;99.90
15113;DHT22;7657;50.140;7.076;2023-03-08T12:28:40;6.30;99.90
15113;DHT22;7657;50.140;7.076;2023-03-08T12:31:24;6.20;99.90
15113;DHT22;7657;50.140;7.076;2023-03-08T12:33:53;6.20;99.90
15113;DHT22;7657;50.140;7.076;2023-03-08T12:36:21;6.30;99.90
15113;DHT22;7657;50.140;7.076;2023-03-08T12:39:05;6.40;99.90
15113;DHT22;7657;50.140;7.076;2023-03-08T12:41:32;6.40;99.90
15113;DHT22;7657;50.140;7.076;2023-03-08T12:44:04;6.40;99.90
15113;DHT22;7657;50.140;7.076;2023-03-08T12:46:45;6.50;99.90
15113;DHT22;7657;50.140;7.076;2023-03-08T12:49:24;6.50;99.90
15113;DHT22;7657;50.140;7.076;2023-03-08T12:52:01;6.60;99.90
15113;DHT22;7657;50.140;7.076;2023-03-08T12:54:31;6.60;99.90
15113;DHT22;7657;50.140;7.076;2023-03-08T12:56:59;6.70;99.90
15113;DHT22;7657;50.140;7.076;2023-03-08T12:59:33;6.70;99.90
15113;DHT22;7657;50.140;7.076;2023-03-08T13:02:18;6.70;99.90
15113;DHT22;7657;50.140;7.076;2023-03-08T13:04:47;6.80;99.90
15113;DHT22;7657;50.140;7.076;2023-03-08T13:07:21;6.80;99.90
15113;DHT22;7657;50.140;7.076;2023-03-08T13:09:55;6.80;99.90
15113;DHT22;7657;50.140;7.076;2023-03-08T13:12:29;6.80;99.90
15113;DHT22;7657;50.140;7.076;2023-03-08T13:15:17;6.90;99.90
15113;DHT22;7657;50.140;7.076;2023-03-08T13:17:52;7.00;99.90
15113;DHT22;7657;50.140;7.076;2023-03-08T13:20:21;6.90;99.90
15113;DHT22;7657;50.140;7.076;2023-03-08T13:22:59;6.70;99.90
15113;DHT22;7657;50.140;7.076;2023-03-08T13:25:51;6.60;99.90
15113;DHT22;7657;50.140;7.076;2023-03-08T13:28:21;6.50;99.90
15113;DHT22;7657;50.140;7.076;2023-03-08T13:30:51;6.20;99.90
15113;DHT22;7657;50.140;7.076;2023-03-08T13:33:22;6.30;99.90
15113;DHT22;7657;50.140;7.076;2023-03-08T13:35:54;6.30;99.90
15113;DHT22;7657;50.140;7.076;2023-03-08T13:38:23;6.40;99.90
15113;DHT22;7657;50.140;7.076;2023-03-08T13:40:50;6.50;99.90
15113;DHT22;7657;50.140;7.076;2023-03-08T13:43:20;6.30;99.90
15113;DHT22;7657;50.140;7.076;2023-03-08T13:45:47;6.40;99.90
15113;DHT22;7657;50.140;7.076;2023-03-08T13:48:16;6.40;99.90
15113;DHT22;7657;50.140;7.076;2023-03-08T13:50:45;6.30;99.90
15113;DHT22;7657;50.140;7.076;2023-03-08T13:53:18;6.30;99.90
15113;DHT22;7657;50.140;7.076;2023-03-08T13:55:47;6.40;99.90
15113;DHT22;7657;50.140;7.076;2023-03-08T13:58:24;6.40;99.90
15113;DHT22;7657;50.140;7.076;2023-03-08T14:01:00;6.10;99.90
15113;DHT22;7657;50.140;7.076;2023-03-08T14:03:30;6.30;99.90
15113;DHT22;7657;50.140;7.076;2023-03-08T14:05:58;6.40;99.90
15113;DHT22;7657;50.140;7.076;2023-03-08T14:08:26;6.60;99.90
15113;DHT22;7657;50.140;7.076;2023-03-08T14:10:56;6.50;99.90
15113;DHT22;7657;50.140;7.076;2023-03-08T14:13:27;6.40;99.90
15113;DHT22;7657;50.140;7.076;2023-03-08T14:15:56;6.30;99.90
15113;DHT22;7657;50.140;7.076;2023-03-08T14:18:25;6.40;99.90
15113;DHT22;7657;50.140;7.076;2023-03-08T14:21:06;6.40;99.90
15113;DHT22;7657;50.140;7.076;2023-03-08T14:23:37;6.50;99.90
15113;DHT22;7657;50.140;7.076;2023-03-08T14:26:05;6.30;99.90
15113;DHT22;7657;50.140;7.076;2023-03-08T14:28:34;6.30;99.90
15113;DHT22;7657;50.140;7.076;2023-03-08T14:31:01;6.40;99.90
15113;DHT22;7657;50.140;7.076;2023-03-08T14:33:28;6.50;99.90
15113;DHT22;7657;50.140;7.076;2023-03-08T14:35:55;6.40;99.90
15113;DHT22;7657;50.140;7.076;2023-03-08T14:38:27;6.40;99.90
15113;DHT22;7657;50.140;7.076;2023-03-08T14:40:56;6.30;99.90
15113;DHT22;7657;50.140;7.076;2023-03-08T14:43:25;6.30;99.90
15113;DHT22;7657;50.140;7.076;2023-03-08T14:45:54;6.30;99.90
15113;DHT22;7657;50.140;7.076;2023-03-08T14:48:24;6.30;99.90
15113;DHT22;7657;50.140;7.076;2023-03-08T14:50:56;6.30;99.90
15113;DHT22;7657;50.140;7.076;2023-03-08T14:53:30;6.30;99.90
15113;DHT22;7657;50.140;7.076;2023-03-08T14:55:58;6.30;99.90
15113;DHT22;7657;50.140;7.076;2023-03-08T14:58:28;6.30;99.90
15113;DHT22;7657;50.140;7.076;2023-03-08T15:00:57;6.30;99.90
15113;DHT22;7657;50.140;7.076;2023-03-08T15:03:25;6.30;99.90
15113;DHT22;7657;50.140;7.076;2023-03-08T15:05:53;6.40;99.90
15113;DHT22;7657;50.140;7.076;2023-03-08T15:08:20;6.40;99.90
15113;DHT22;7657;50.140;7.076;2023-03-08T15:10:49;6.50;99.90
15113;DHT22;7657;50.140;7.076;2023-03-08T15:13:17;6.50;99.90
15113;DHT22;7657;50.140;7.076;2023-03-08T15:15:45;6.60;99.90
15113;DHT22;7657;50.140;7.076;2023-03-08T15:18:12;6.60;99.90
15113;DHT22;7657;50.140;7.076;2023-03-08T15:20:42;6.70;99.90
15113;DHT22;7657;50.140;7.076;2023-03-08T15:23:16;6.80;99.90
15113;DHT22;7657;50.140;7.076;2023-03-08T15:25:43;6.80;99.90
15113;DHT22;7657;50.140;7.076;2023-03-08T15:28:14;6.90;99.90
15113;DHT22;7657;50.140;7.076;2023-03-08T15:30:42;7.00;99.90
15113;DHT22;7657;50.140;7.076;2023-03-08T15:33:09;7.00;99.90
15113;DHT22;7657;50.140;7.076;2023-03-08T15:35:36;7.10;99.90
15113;DHT22;7657;50.140;7.076;2023-03-08T15:38:03;7.10;99.90
15113;DHT22;7657;50.140;7.076;2023-03-08T15:40:31;7.10;99.90
15113;DHT22;7657;50.140;7.076;2023-03-08T15:42:58;7.20;99.90
15113;DHT22;7657;50.140;7.076;2023-03-08T15:45:26;7.20;99.90
15113;DHT22;7657;50.140;7.076;2023-03-08T15:47:55;7.20;99.90
15113;DHT22;7657;50.140;7.076;2023-03-08T15:50:22;7.20;99.90
15113;DHT22;7657;50.140;7.076;2023-03-08T15:52:49;7.20;99.90
15113;DHT22;7657;50.140;7.076;2023-03-08T15:55:17;7.00;99.90
15113;DHT22;7657;50.140;7.076;2023-03-08T15:57:44;7.00;99.90
15113;DHT22;7657;50.140;7.076;2023-03-08T16:00:12;7.00;99.90
15113;DHT22;7657;50.140;7.076;2023-03-08T16:02:41;7.00;99.90
15113;DHT22;7657;50.140;7.076;2023-03-08T16:05:10;7.00;99.90
15113;DHT22;7657;50.140;7.076;2023-03-08T16:07:37;7.00;99.90
15113;DHT22;7657;50.140;7.076;2023-03-08T16:10:06;7.00;99.90
15113;DHT22;7657;50.140;7.076;2023-03-08T16:12:34;7.00;99.90
15113;DHT22;7657;50.140;7.076;2023-03-08T16:15:00;7.00;99.90
15113;DHT22;7657;50.140;7.076;2023-03-08T16:17:29;7.00;99.90
15113;DHT22;7657;50.140;7.076;2023-03-08T16:19:57;7.10;99.90
15113;DHT22;7657;50.140;7.076;2023-03-08T16:22:24;7.10;99.90